TimeEST,TemperatureF,Dew PointF,Humidity,Sea Level PressureIn,VisibilityMPH,Wind Direction,Wind SpeedMPH,Gust SpeedMPH,PrecipitationIn,Events,Conditions,WindDirDegrees,DateUTC
12:54 AM,45.0,39.9,82,30.12,10.0,ENE,3.5,-,N/A,,Overcast,60,2013-01-03 05:54:00
1:54 AM,45.0,39.9,82,30.12,10.0,Calm,Calm,-,N/A,,Overcast,0,2013-01-03 06:54:00
2:54 AM,44.1,39.9,85,30.15,10.0,North,4.6,-,N/A,,Overcast,350,2013-01-03 07:54:00
3:40 AM,42.8,41.0,93,30.14,4.0,NNE,3.5,-,N/A,,Overcast,20,2013-01-03 08:40:00
3:54 AM,43.0,41.0,93,30.15,4.0,NE,4.6,-,N/A,,Overcast,50,2013-01-03 08:54:00
4:09 AM,42.8,42.8,100,30.13,4.0,NE,4.6,-,N/A,,Overcast,50,2013-01-03 09:09:00
4:30 AM,42.8,41.0,93,30.11,3.0,Calm,Calm,-,N/A,,Overcast,0,2013-01-03 09:30:00
4:54 AM,43.0,41.0,93,30.13,4.0,East,4.6,-,N/A,,Overcast,90,2013-01-03 09:54:00
5:22 AM,42.8,41.0,93,30.12,6.0,Calm,Calm,-,N/A,,Overcast,0,2013-01-03 10:22:00
5:54 AM,43.0,41.0,93,30.14,7.0,ENE,3.5,-,N/A,,Overcast,60,2013-01-03 10:54:00
6:43 AM,42.8,41.0,93,30.14,7.0,East,3.5,-,N/A,,Overcast,90,2013-01-03 11:43:00
6:54 AM,43.0,41.0,93,30.15,8.0,ENE,4.6,-,N/A,,Overcast,60,2013-01-03 11:54:00
7:43 AM,42.8,39.2,87,30.16,9.0,NE,3.5,-,N/A,,Overcast,40,2013-01-03 12:43:00
7:54 AM,43.0,39.9,89,30.17,9.0,NE,3.5,-,N/A,,Overcast,40,2013-01-03 12:54:00
8:03 AM,42.8,39.2,87,30.16,8.0,NE,4.6,-,N/A,,Overcast,40,2013-01-03 13:03:00
8:54 AM,43.0,39.0,86,30.18,9.0,NE,5.8,-,N/A,,Overcast,50,2013-01-03 13:54:00
9:34 AM,42.8,39.2,87,30.18,9.0,NE,8.1,-,N/A,,Overcast,40,2013-01-03 14:34:00
9:54 AM,43.0,39.0,86,30.20,9.0,NE,8.1,-,N/A,,Overcast,40,2013-01-03 14:54:00
10:54 AM,44.1,39.0,82,30.19,9.0,East,6.9,-,N/A,,Overcast,80,2013-01-03 15:54:00
11:54 AM,43.0,37.9,82,30.19,8.0,East,4.6,-,N/A,,Overcast,90,2013-01-03 16:54:00
12:54 PM,44.1,37.9,79,30.17,8.0,East,3.5,-,N/A,,Overcast,80,2013-01-03 17:54:00
1:54 PM,44.1,37.9,79,30.16,8.0,Calm,Calm,-,N/A,,Overcast,0,2013-01-03 18:54:00
2:54 PM,44.1,37.9,79,30.18,8.0,NNE,3.5,-,N/A,,Overcast,30,2013-01-03 19:54:00
3:52 PM,44.6,37.4,76,30.17,9.0,NNE,4.6,-,N/A,,Overcast,20,2013-01-03 20:52:00
3:54 PM,45.0,37.9,76,30.19,9.0,North,3.5,-,N/A,,Overcast,10,2013-01-03 20:54:00
4:54 PM,45.0,37.0,74,30.21,9.0,North,4.6,-,N/A,,Overcast,360,2013-01-03 21:54:00
5:54 PM,43.0,37.0,80,30.22,9.0,Calm,Calm,-,N/A,,Scattered Clouds,0,2013-01-03 22:54:00
6:54 PM,37.9,36.0,93,30.24,7.0,Calm,Calm,-,N/A,,Clear,0,2013-01-03 23:54:00
7:54 PM,37.0,35.1,93,30.26,5.0,Calm,Calm,-,N/A,,Clear,0,2013-01-04 00:54:00
8:54 PM,35.1,33.1,92,30.27,5.0,Calm,Calm,-,N/A,,Clear,0,2013-01-04 01:54:00
9:54 PM,34.0,32.0,92,30.28,4.0,Calm,Calm,-,N/A,,Clear,0,2013-01-04 02:54:00
10:54 PM,35.1,32.0,89,30.29,6.0,Calm,Calm,-,N/A,,Clear,0,2013-01-04 03:54:00
11:54 PM,34.0,28.9,82,30.29,10.0,Calm,Calm,-,N/A,,Clear,0,2013-01-04 04:54:00